^^

Metar de toute la France(point de départ, Chateauroux, classé dans l'ordre alphabétique actualisée toutes les 30 minutes)






LFBA - Agen/, France
Distance de la station: SSO 307km
Mise à jour: 02/09/2014 06:00
partiellement nuageux
partiellement nuageux
 Wind from O
Vent: O 4 km/h
Température: 11°C
Point de Rosée: 10°C
Humidité: 94%
Baromètre: 1017 hPa
Nuages: partiellement nuageux
Visibilité: 10 km
2014/09/02 04:00 LFBA 020400Z AUTO 28002KT 9999 NSC 11/10 Q1017
LFLP - Annecy/, France
Distance de la station: ESE 352km
Mise à jour: 02/09/2014 06:00
partiellement nuageux
partiellement nuageux
 Wind from variable
Vent: variable 6 km/h
Température: 9°C
Point de Rosée: 7°C
Humidité: 87%
Baromètre: 1018 hPa
Nuages: partiellement nuageux
Visibilité: 10 km
2014/09/02 04:00 LFLP 020400Z AUTO VRB03KT 9999 NSC 09/07 Q1018
 
LFOA - Avord/ , France
Distance de la station: ENE 76km
Mise à jour: 02/09/2014 06:00
partiellement nuageux
partiellement nuageux
 Wind from NE
Vent: NE 4 km/h
Température: 11°C
Point de Rosée: 9°C
Humidité: 88%
Baromètre: 1020 hPa
Nuages: partiellement nuageux
Visibilité: 10 km
2014/09/02 04:00 LFOA 020400Z AUTO 05002KT 9999 NSC 11/09 Q1020
LFSB - Bale/, France
Distance de la station: ENE 449km
Mise à jour: 02/09/2014 06:00
nuageux
nuageux
 Wind from calm
Vent: Vent calme
Température: 9°C
Point de Rosée: 8°C
Humidité: 94%
Baromètre: 1021 hPa
Nuages: nuageux
Visibilité: 6 km
Nuages details: Quelques Nuages 1219 m
nuageux 2225 m
2014/09/02 04:00 LFSB 020400Z 00000KT 6000 FEW040 BKN073 09/08 Q1021 TEMPO 4000 BR
 
LFOB - Beauvais/, France
Distance de la station: N 296km
Mise à jour: 02/09/2014 06:00
Couvert
Couvert
 Wind from variable
Vent: variable 2 km/h
Température: 15°C
Point de Rosée: 13°C
Humidité: 88%
Baromètre: 1021 hPa
Nuages: Couvert
Visibilité: 10 km
Nuages details: nuageux 1158 m
nuageux 1463 m
Couvert 1646 m
2014/09/02 04:00 LFOB 020400Z AUTO VRB01KT 9999 BKN038 BKN048 OVC054 15/13 Q1021
LFBE - Bergerac/, France
Distance de la station: SSO 240km
Mise à jour: 02/09/2014 06:00
partiellement nuageux
partiellement nuageux
 Wind from variable
Vent: variable 2 km/h
Température: 9°C
Point de Rosée: 8°C
Humidité: 94%
Baromètre: 1018 hPa
Nuages: partiellement nuageux
Visibilité: 8 km
2014/09/02 04:00 LFBE 020400Z AUTO VRB01KT 8000 NSC 09/08 Q1018
 
LFMU - Beziers/, France
Distance de la station: SSE 411km
Mise à jour: 02/09/2014 06:00
partiellement nuageux
partiellement nuageux
 Wind from NO
Vent: NO 20 km/h
Température: 19°C
Point de Rosée: 6°C
Humidité: 43%
Baromètre: 1014 hPa
Nuages: partiellement nuageux
Visibilité: 10 km
2014/09/02 04:00 LFMU 020400Z AUTO 32011KT 9999 NSC 19/06 Q1014
LFBZ - Biarritz/, France
Distance de la station: SO 449km
Mise à jour: 02/09/2014 06:00
Broulliard, partiellement nuageux
Broulliard, partiellement nuageux
 Wind from SE
Vent: SE 4 km/h
Température: 15°C
Point de Rosée: 14°C
Humidité: 94%
Baromètre: 1017 hPa
Récapitulatifs: Broulliard
Nuages: partiellement nuageux
Visibilité: 1 km
2014/09/02 04:00 LFBZ 020400Z 14002KT 1400 R09/P2000 R27/1400D BR NSC 15/14 Q1017 NOSIG
 
LFBD - Bordeaux/, France
Distance de la station: SO 289km
Mise à jour: 02/09/2014 06:00
partiellement nuageux
partiellement nuageux
 Wind from NNE
Vent: NNE 6 km/h
Température: 15°C
Point de Rosée: 12°C
Humidité: 82%
Baromètre: 1018 hPa
Nuages: partiellement nuageux
Visibilité: 10 km
2014/09/02 04:00 LFBD 020400Z AUTO 03003KT 9999 NSC 15/12 Q1018
LFAQ - Bray/, France
Distance de la station: N 358km
Mise à jour: 02/09/2014 06:00
Broulliard, Couvert
Broulliard, Couvert
 Wind from O
Vent: O 6 km/h
Température: 15°C
Point de Rosée: 14°C
Humidité: 94%
Baromètre: 1021 hPa
Récapitulatifs: Broulliard
Nuages: Couvert
Visibilité: 4 km
Nuages details: Couvert 488 m
2014/09/02 04:00 LFAQ 020400Z AUTO 27003KT 3600 BR OVC016 15/14 Q1021
 
LFRB - Brest/, France
Distance de la station: ONO 492km
Mise à jour: 02/09/2014 06:00
nuageux
nuageux
 Wind from NNE
Vent: NNE 6 km/h
Température: 14°C
Point de Rosée: 13°C
Humidité: 94%
Baromètre: 1021 hPa
Nuages: nuageux
Visibilité: 10 km
Nuages details: partiellement nuageux 488 m
nuageux 1250 m
2014/09/02 04:00 LFRB 020400Z 02003KT 9999 SCT016 BKN041 14/13 Q1021 NOSIG
LFRK - Caen/, France
Distance de la station: NNO 306km
Mise à jour: 02/09/2014 06:00
nuageux
nuageux
 Wind from SO
Vent: SO 6 km/h
Température: 13°C
Point de Rosée: 12°C
Humidité: 94%
Baromètre: 1021 hPa
Nuages: nuageux
Visibilité: 10 km
Nuages details: nuageux 1372 m
nuageux 2438 m
2014/09/02 04:00 LFRK 020400Z AUTO 22003KT 9999 BKN045 BKN080 13/12 Q1021
 
LFMK - Carcassonne/, France
Distance de la station: S 403km
Mise à jour: 02/09/2014 06:00
partiellement nuageux
partiellement nuageux
 Wind from OSO
Vent: OSO 7 km/h
Température: 14°C
Point de Rosée: 11°C
Humidité: 82%
Baromètre: 1016 hPa
Nuages: partiellement nuageux
Visibilité: 10 km
2014/09/02 04:00 LFMK 020400Z AUTO 25004KT 9999 NSC 14/11 Q1016
LFMV - Caumont/, France
Distance de la station: SE 410km
Mise à jour: 02/09/2014 06:00
partiellement nuageux
partiellement nuageux
 Wind from N
Vent: N 37 km/h, Rafale: 57 km/h
Température: 17°C
Point de Rosée: 9°C
Humidité: 59%
Baromètre: 1012 hPa
Nuages: partiellement nuageux
Visibilité: 10 km
2014/09/02 04:00 LFMV 020400Z AUTO 35020G31KT 9999 NSC 17/09 Q1012
 
LFBC - Cazaux/, France
Distance de la station: SO 336km
Mise à jour: 02/09/2014 06:00
partiellement nuageux
partiellement nuageux
 Wind from NNE
Vent: NNE 7 km/h
Température: 13°C
Point de Rosée: 11°C
Humidité: 88%
Baromètre: 1018 hPa
Nuages: partiellement nuageux
Visibilité: 10 km
2014/09/02 04:00 LFBC 020400Z AUTO 02004KT 9999 NSC 13/11 Q1018
LFPC - Creil/, France
Distance de la station: NNE 278km
Mise à jour: 02/09/2014 06:00
Couvert
Couvert
 Wind from E
Vent: E 2 km/h
Température: 14°C
Point de Rosée: 13°C
Humidité: 94%
Baromètre: 1021 hPa
Nuages: Couvert
Visibilité: 10 km
Nuages details: Couvert 1372 m
2014/09/02 04:00 LFPC 020400Z AUTO 09001KT 9999 OVC045 14/13 Q1021
 
LFLB - Chambery/, France
Distance de la station: ESE 348km
Mise à jour: 02/09/2014 06:00
partiellement nuageux
partiellement nuageux
 Wind from NNE
Vent: NNE 15 km/h
Température: 14°C
Point de Rosée: 10°C
Humidité: 77%
Baromètre: 1018 hPa
Nuages: partiellement nuageux
Visibilité: 10 km
2014/09/02 04:00 LFLB 020400Z AUTO 02008KT 9999 NSC 14/10 Q1018
LFOK - Chalons/, France
Distance de la station: NE 287km
Mise à jour: 02/09/2014 06:00
partiellement nuageux
partiellement nuageux
 Wind from ENE
Vent: ENE 4 km/h
Température: 14°C
Point de Rosée: 11°C
Humidité: 82%
Baromètre: 1021 hPa
Nuages: partiellement nuageux
Visibilité: 10 km
2014/09/02 04:00 LFOK 020400Z AUTO 06002KT 9999 NSC 14/11 Q1021
 
LFOC - Chateaudun/, France
Distance de la station: N 137km
Mise à jour: 02/09/2014 06:00
partiellement nuageux
partiellement nuageux
 Wind from N
Vent: N 7 km/h
Température: 14°C
Point de Rosée: 13°C
Humidité: 94%
Baromètre: 1020 hPa
Nuages: partiellement nuageux
Visibilité: 10 km
2014/09/02 04:00 LFOC 020400Z AUTO 01004KT 9999 NSC 14/13 Q1020
LFLX - Chateauroux/, France
Distance de la station: NE 4km
Mise à jour: 02/09/2014 06:00
clair
clair
 Wind from calm
Vent: Vent calme
Température: 10°C
Point de Rosée: 8°C
Humidité: 88%
Baromètre: 1020 hPa
Récapitulatifs: clair
Visibilité: supérieure à 10 km
2014/09/02 04:00 LFLX 020400Z 00000KT CAVOK 10/08 Q1020 NOSIG
 
LFPG - Charles De Gaulle/, France
Distance de la station: NNE 252km
Mise à jour: 02/09/2014 06:00
partiellement nuageux
partiellement nuageux
 Wind from N
Vent: N 9 km/h
Température: 15°C
Point de Rosée: 13°C
Humidité: 88%
Baromètre: 1021 hPa
Nuages: partiellement nuageux
Visibilité: 10 km
Nuages details: Quelques Nuages 1219 m
partiellement nuageux 1707 m
2014/09/02 04:00 LFPG 020400Z 01005KT 9999 FEW040 SCT056 15/13 Q1021 NOSIG
LFRC - Cherbourg/, France
Distance de la station: NO 390km
Mise à jour: 02/09/2014 06:00
Patches of Fog
Patches of Fog
 Wind from S
Vent: S 4 km/h
Température: 16°C
Point de Rosée: 15°C
Humidité: 94%
Baromètre: 1021 hPa
Récapitulatifs: Patches of Fog
Visibilité: 1 km
2014/09/02 04:00 LFRC 020400Z AUTO 18002KT 1100 R28/P2000 BCFG VV/// 16/15 Q1021
 
LFLC - Clermont/, France
Distance de la station: SE 163km
Mise à jour: 02/09/2014 06:06
clair
clair
 Wind from calm
Vent: Vent calme
Température: 8°C
Point de Rosée: 7°C
Humidité: 93%
Baromètre: 1020 hPa
Récapitulatifs: clair
Visibilité: supérieure à 10 km
2014/09/02 04:06 LFLC 020406Z 00000KT CAVOK 08/07 Q1020 NOSIG
LFBG - Cognac/, France
Distance de la station: SO 200km
Mise à jour: 02/09/2014 06:00
partiellement nuageux
partiellement nuageux
 Wind from NNE
Vent: NNE 6 km/h
Température: 13°C
Point de Rosée: 11°C
Humidité: 88%
Baromètre: 1019 hPa
Nuages: partiellement nuageux
Visibilité: 10 km
2014/09/02 04:00 LFBG 020400Z AUTO 03003KT 9999 NSC 13/11 Q1019
 
LFBY - Dax/, France
Distance de la station: SSO 411km
Mise à jour: 02/09/2014 06:00

 Wind from variable
Vent: variable 4 km/h
Température: 15°C
Point de Rosée: 13°C
Humidité: 88%
Baromètre: 1017 hPa
Visibilité: 10 km
2014/09/02 04:00 LFBY 020400Z AUTO VRB02KT 9999 // ////// 15/13 Q1017
LFSD - Dijon/, France
Distance de la station: ENE 261km
Mise à jour: 02/09/2014 06:00
partiellement nuageux
partiellement nuageux
 Wind from N
Vent: N 6 km/h
Température: 10°C
Point de Rosée: 7°C
Humidité: 82%
Baromètre: 1020 hPa
Nuages: partiellement nuageux
Visibilité: 10 km
2014/09/02 04:00 LFSD 020400Z AUTO 35003KT 9999 NSC 10/07 Q1020
 
LFRD - Dinard/, France
Distance de la station: NO 342km
Mise à jour: 02/09/2014 06:00
Couvert
Couvert
 Wind from SO
Vent: SO 2 km/h
Température: 16°C
Point de Rosée: 15°C
Humidité: 94%
Baromètre: 1021 hPa
Nuages: Couvert
Visibilité: 10 km
Nuages details: Quelques Nuages 305 m
nuageux 1250 m
Couvert 1463 m
2014/09/02 04:00 LFRD 020400Z AUTO 23001KT 9999 FEW010 BKN041 OVC048 16/15 Q1021
LFGJ - Dole/, France
Distance de la station: E 286km
Mise à jour: 02/09/2014 06:00
partiellement nuageux
partiellement nuageux
 Wind from N
Vent: N 6 km/h
Température: 11°C
Point de Rosée: 9°C
Humidité: 88%
Baromètre: 1019 hPa
Nuages: partiellement nuageux
Visibilité: 10 km
2014/09/02 04:00 LFGJ 020400Z AUTO 36003KT 9999 NSC 11/09 Q1019
 
LFOE - Evreux/, France
Distance de la station: N 247km
Mise à jour: 02/09/2014 06:00
partiellement nuageux
partiellement nuageux
 Wind from variable
Vent: variable 2 km/h
Température: 13°C
Point de Rosée: 12°C
Humidité: 94%
Baromètre: 1021 hPa
Nuages: partiellement nuageux
Visibilité: 10 km
2014/09/02 04:00 LFOE 020400Z AUTO VRB01KT 9999 NSC 13/12 Q1021
LFMT - Frejorgues/, France
Distance de la station: SSE 403km
Mise à jour: 02/09/2014 06:00
clair
clair
 Wind from NNO
Vent: NNO 6 km/h
Température: 16°C
Point de Rosée: 6°C
Humidité: 52%
Baromètre: 1014 hPa
Récapitulatifs: clair
Visibilité: supérieure à 10 km
2014/09/02 04:00 LFMT 020400Z 33003KT CAVOK 16/06 Q1014 NOSIG
 
LFMI - Istres/, France
Distance de la station: SE 446km
Mise à jour: 02/09/2014 06:00
partiellement nuageux
partiellement nuageux
 Wind from N
Vent: N 20 km/h
Température: 17°C
Point de Rosée: 9°C
Humidité: 59%
Baromètre: 1011 hPa
Nuages: partiellement nuageux
Visibilité: 10 km
2014/09/02 04:00 LFMI 020400Z AUTO 35011KT 9999 NSC 17/09 Q1011
LFLS - Grenoble/, France
Distance de la station: ESE 323km
Mise à jour: 02/09/2014 06:00
partiellement nuageux
partiellement nuageux
 Wind from variable
Vent: variable 4 km/h
Température: 7°C
Point de Rosée: 7°C
Humidité: 100%
Baromètre: 1018 hPa
Nuages: partiellement nuageux
Visibilité: 10 km
2014/09/02 04:00 LFLS 020400Z AUTO VRB02KT 9999 NSC 07/07 Q1018
 
LFBH - La Rochelle/, France
Distance de la station: OSO 229km
Mise à jour: 02/09/2014 06:00
partiellement nuageux
partiellement nuageux
 Wind from NE
Vent: NE 13 km/h
Température: 14°C
Point de Rosée: 11°C
Humidité: 82%
Baromètre: 1019 hPa
Nuages: partiellement nuageux
Visibilité: 10 km
2014/09/02 04:00 LFBH 020400Z AUTO 05007KT 9999 NSC 14/11 Q1019
LFRI - La Roche Sur Yon/, France
Distance de la station: O 233km
Mise à jour: 02/09/2014 06:00
partiellement nuageux
partiellement nuageux
 Wind from NE
Vent: NE 6 km/h
Température: 12°C
Point de Rosée: 11°C
Humidité: 94%
Baromètre: 1020 hPa
Nuages: partiellement nuageux
Visibilité: 8 km
2014/09/02 04:00 LFRI 020400Z AUTO 04003KT 8000 NSC 12/11 Q1020
 
LFOH - Le Havre/, France
Distance de la station: NNO 323km
Mise à jour: 02/09/2014 06:00
Broulliard, Couvert
Broulliard, Couvert
 Wind from SSE
Vent: SSE 6 km/h
Température: 16°C
Point de Rosée: 14°C
Humidité: 88%
Baromètre: 1021 hPa
Récapitulatifs: Broulliard
Nuages: Couvert
Visibilité: 5 km
Nuages details: Couvert 488 m
2014/09/02 04:00 LFOH 020400Z AUTO 15003KT 5000 BR OVC016 16/14 Q1021
LFRM - Le Mans/, France
Distance de la station: NO 166km
Mise à jour: 02/09/2014 06:00
partiellement nuageux
partiellement nuageux
 Wind from calm
Vent: Vent calme
Température: 14°C
Point de Rosée: 12°C
Humidité: 88%
Baromètre: 1020 hPa
Nuages: partiellement nuageux
Visibilité: 10 km
2014/09/02 04:00 LFRM 020400Z AUTO 00000KT 9999 NSC 14/12 Q1020
 
LFRJ - Landivisiau/, France
Distance de la station: ONO 476km
Mise à jour: 02/09/2014 06:00
Couvert
Couvert
 Wind from calm
Vent: Vent calme
Température: 15°C
Point de Rosée: 14°C
Humidité: 94%
Baromètre: 1021 hPa
Nuages: Couvert
Visibilité: 10 km
Nuages details: partiellement nuageux 610 m
nuageux 1280 m
Couvert 1524 m
2014/09/02 04:00 LFRJ 020400Z AUTO 00000KT 9999 SCT020 BKN042 OVC050 15/14 Q1021
LFRO - Lannion/, France
Distance de la station: ONO 441km
Mise à jour: 02/09/2014 06:00
Couvert
Couvert
 Wind from variable
Vent: variable 4 km/h
Température: 15°C
Point de Rosée: 14°C
Humidité: 94%
Baromètre: 1021 hPa
Nuages: Couvert
Visibilité: 10 km
Nuages details: Couvert 640 m
2014/09/02 04:00 LFRO 020400Z AUTO VRB02KT 9999 OVC021 15/14 Q1021
 
LFRL - Lanveoc/, France
Distance de la station: ONO 485km
Mise à jour: 02/09/2014 06:00
Couvert
Couvert
 Wind from NNE
Vent: NNE 9 km/h
Température: 15°C
Point de Rosée: 14°C
Humidité: 94%
Baromètre: 1021 hPa
Nuages: Couvert
Visibilité: 10 km
Nuages details: nuageux 183 m
Couvert 305 m
2014/09/02 04:00 LFRL 020400Z AUTO 03005KT 9999 BKN006 OVC010 15/14 Q1021
LFBL - Limoges/, France
Distance de la station: SSO 113km
Mise à jour: 02/09/2014 06:00
partiellement nuageux
partiellement nuageux
 Wind from NE
Vent: NE 13 km/h
Température: 13°C
Point de Rosée: 8°C
Humidité: 72%
Baromètre: 1019 hPa
Nuages: partiellement nuageux
Visibilité: 10 km
2014/09/02 04:00 LFBL 020400Z AUTO 04007KT 9999 NSC 13/08 Q1019
 
LFQQ - Lille/, France
Distance de la station: NNE 430km
Mise à jour: 02/09/2014 06:00
faible pluie, Couvert
faible pluie, Couvert
 Wind from calm
Vent: Vent calme
Température: 16°C
Point de Rosée: 15°C
Humidité: 94%
Baromètre: 1020 hPa
Récapitulatifs: faible pluie
Nuages: Couvert
Visibilité: 3 km
Nuages details: Couvert 61 m
2014/09/02 04:00 LFQQ 020400Z 00000KT 2500 -RA OVC002 16/15 Q1020 NOSIG
LFRH - Lorient/, France
Distance de la station: ONO 401km
Mise à jour: 02/09/2014 06:00
partiellement nuageux
partiellement nuageux
 Wind from NNE
Vent: NNE 9 km/h
Température: 11°C
Point de Rosée: 11°C
Humidité: 100%
Baromètre: 1021 hPa
Nuages: partiellement nuageux
Visibilité: 10 km
2014/09/02 04:00 LFRH 020400Z AUTO 03005KT 9999 NSC 11/11 Q1021
 
LFLY - Lyon/, France
Distance de la station: ESE 279km
Mise à jour: 02/09/2014 06:00
partiellement nuageux
partiellement nuageux
 Wind from NNE
Vent: NNE 6 km/h
Température: 13°C
Point de Rosée: 9°C
Humidité: 77%
Baromètre: 1018 hPa
Nuages: partiellement nuageux
Visibilité: 10 km
2014/09/02 04:00 LFLY 020400Z AUTO 02003KT 340V060 9999 NSC 13/09 Q1018
LFLL - Lyon/Satolas, France
Distance de la station: ESE 287km
Mise à jour: 02/09/2014 06:00
clair
clair
 Wind from NNO
Vent: NNO 13 km/h
Température: 11°C
Point de Rosée: 9°C
Humidité: 88%
Baromètre: 1018 hPa
Récapitulatifs: clair
Visibilité: supérieure à 10 km
2014/09/02 04:00 LFLL 020400Z 34007KT CAVOK 11/09 Q1018 NOSIG
 
LFSX - Luxeuil/, France
Distance de la station: ENE 366km
Mise à jour: 02/09/2014 06:00
Brouillard ou brume
Brouillard ou brume
 Wind from calm
Vent: Vent calme
Température: 6°C
Point de Rosée: 5°C
Humidité: 93%
Baromètre: 1020 hPa
Récapitulatifs: Brouillard ou brume
Visibilité: 0 km
2014/09/02 04:00 LFSX 020400Z AUTO 00000KT 0200 R11/1100U FG VV/// 06/05 Q1020
LFJR - Marce/, France
Distance de la station: NO 134km
Mise à jour: 02/09/2014 06:00
Patches of fog, partiellement nuageux
Patches of fog, partiellement nuageux
 Wind from calm
Vent: Vent calme
Température: 11°C
Point de Rosée: 11°C
Humidité: 100%
Baromètre: 1020 hPa
Récapitulatifs: Patches of Fog
Nuages: partiellement nuageux
Visibilité: 1 km
2014/09/02 04:00 LFJR 020400Z AUTO 00000KT 1200 R26/1600D BCFG NSC 11/11 Q1020
 
LFML - Marseille/, France
Distance de la station: SE 466km
Mise à jour: 02/09/2014 06:00
clair
clair
 Wind from NNO
Vent: NNO 19 km/h
Température: 16°C
Point de Rosée: 10°C
Humidité: 68%
Baromètre: 1011 hPa
Récapitulatifs: clair
Visibilité: supérieure à 10 km
2014/09/02 04:00 LFML 020400Z 34010KT CAVOK 16/10 Q1011 NOSIG
LFPM - Melun/, France
Distance de la station: NNE 213km
Mise à jour: 02/09/2014 06:00
nuageux
nuageux
 Wind from NNO
Vent: NNO 4 km/h
Température: 13°C
Point de Rosée: 12°C
Humidité: 94%
Baromètre: 1020 hPa
Nuages: nuageux
Visibilité: 10 km
Nuages details: nuageux 1402 m
2014/09/02 04:00 LFPM 020400Z AUTO 34002KT 9999 BKN046 13/12 Q1020
 
LFJL - Metz-Nancy-Lorra/, France
Distance de la station: NE 416km
Mise à jour: 02/09/2014 06:00
Broulliard, partiellement nuageux
Broulliard, partiellement nuageux
 Wind from calm
Vent: Vent calme
Température: 11°C
Point de Rosée: 10°C
Humidité: 94%
Baromètre: 1021 hPa
Récapitulatifs: Broulliard
Nuages: partiellement nuageux
Visibilité: 5 km
2014/09/02 04:00 LFJL 020400Z AUTO 00000KT 5000 BR NSC 11/10 Q1021
LFBM - Mont-De-Marsan/, France
Distance de la station: SSO 365km
Mise à jour: 02/09/2014 06:00
partiellement nuageux
partiellement nuageux
 Wind from calm
Vent: Vent calme
Température: 11°C
Point de Rosée: 11°C
Humidité: 100%
Baromètre: 1017 hPa
Nuages: partiellement nuageux
Visibilité: 10 km
2014/09/02 04:00 LFBM 020400Z AUTO 00000KT 9999 NSC 11/11 Q1017
 
LFSO - Nancy/, France
Distance de la station: ENE 375km
Mise à jour: 02/09/2014 06:00
partiellement nuageux
partiellement nuageux
 Wind from SSE
Vent: SSE 6 km/h
Température: 10°C
Point de Rosée: 9°C
Humidité: 94%
Baromètre: 1021 hPa
Nuages: partiellement nuageux
Visibilité: 10 km
2014/09/02 04:00 LFSO 020400Z AUTO 16003KT 130V190 9999 NSC 10/09 Q1021
LFRS - Nantes/, France
Distance de la station: O 252km
Mise à jour: 02/09/2014 06:00
clair
clair
 Wind from N
Vent: N 6 km/h
Température: 12°C
Point de Rosée: 11°C
Humidité: 94%
Baromètre: 1020 hPa
Récapitulatifs: clair
Visibilité: supérieure à 10 km
2014/09/02 04:00 LFRS 020400Z 01003KT 330V040 CAVOK 12/11 Q1020 NOSIG
 
LFTW - Nimes/, France
Distance de la station: SE 402km
Mise à jour: 02/09/2014 06:00
partiellement nuageux
partiellement nuageux
 Wind from N
Vent: N 24 km/h
Température: 18°C
Point de Rosée: 5°C
Humidité: 43%
Baromètre: 1013 hPa
Nuages: partiellement nuageux
Visibilité: 10 km
2014/09/02 04:00 LFTW 020400Z AUTO 01013KT 9999 NSC 18/05 Q1013
LFMO - Orange/, France
Distance de la station: SE 387km
Mise à jour: 02/09/2014 06:00
partiellement nuageux
partiellement nuageux
 Wind from variable
Vent: variable 0 km/h
Température: 16°C
Point de Rosée: 9°C
Humidité: 63%
Baromètre: 1013 hPa
Nuages: partiellement nuageux
Visibilité: 10 km
2014/09/02 04:00 LFMO 020400Z AUTO /////KT 9999 NSC 16/09 Q1013
 
LFOJ - Orleans/, France
Distance de la station: N 128km
Mise à jour: 02/09/2014 06:00
partiellement nuageux
partiellement nuageux
 Wind from calm
Vent: Vent calme
Température: 12°C
Point de Rosée: 10°C
Humidité: 88%
Baromètre: 1020 hPa
Nuages: partiellement nuageux
Visibilité: 10 km
2014/09/02 04:00 LFOJ 020400Z AUTO 00000KT 9999 NSC 12/10 Q1020
LFPB - Paris/, France
Distance de la station: NNE 246km
Mise à jour: 02/09/2014 06:00
nuageux
nuageux
 Wind from NE
Vent: NE 2 km/h
Température: 14°C
Point de Rosée: 13°C
Humidité: 94%
Baromètre: 1021 hPa
Nuages: nuageux
Visibilité: 10 km
Nuages details: partiellement nuageux 1341 m
nuageux 1707 m
2014/09/02 04:00 LFPB 020400Z AUTO 04001KT 9999 SCT044 BKN056 14/13 Q1021
 
LFPO - Paris/Orly/, France
Distance de la station: NNE 218km
Mise à jour: 02/09/2014 06:00
nuageux
nuageux
 Wind from NNE
Vent: NNE 6 km/h
Température: 15°C
Point de Rosée: 13°C
Humidité: 88%
Baromètre: 1021 hPa
Nuages: nuageux
Visibilité: 10 km
Nuages details: nuageux 1402 m
2014/09/02 04:00 LFPO 020400Z 03003KT 9999 BKN046 15/13 Q1021 NOSIG
LFMP - Perpignan/, France
Distance de la station: SSE 465km
Mise à jour: 02/09/2014 06:00
partiellement nuageux
partiellement nuageux
 Wind from NO
Vent: NO 20 km/h
Température: 22°C
Point de Rosée: 11°C
Humidité: 50%
Baromètre: 1013 hPa
Nuages: partiellement nuageux
Visibilité: 10 km
2014/09/02 04:00 LFMP 020400Z AUTO 32011KT 9999 NSC 22/11 Q1013
 
LFBI - Poitiers/, France
Distance de la station: OSO 108km
Mise à jour: 02/09/2014 06:00
partiellement nuageux
partiellement nuageux
 Wind from NO
Vent: NO 6 km/h
Température: 11°C
Point de Rosée: 9°C
Humidité: 88%
Baromètre: 1020 hPa
Nuages: partiellement nuageux
Visibilité: 10 km
2014/09/02 04:00 LFBI 020400Z AUTO 31003KT 9999 NSC 11/09 Q1020
LFRQ - Quimper/, France
Distance de la station: ONO 458km
Mise à jour: 02/09/2014 06:00
nuageux
nuageux
 Wind from NNE
Vent: NNE 7 km/h
Température: 13°C
Point de Rosée: 13°C
Humidité: 100%
Baromètre: 1021 hPa
Nuages: nuageux
Visibilité: 10 km
Nuages details: nuageux 1036 m
nuageux 3962 m
2014/09/02 04:00 LFRQ 020400Z AUTO 03004KT 9999 BKN034 BKN130 13/13 Q1021
 
LFRN - Rennes/, France
Distance de la station: ONO 291km
Mise à jour: 02/09/2014 06:00
Broulliard, partiellement nuageux
Broulliard, partiellement nuageux
 Wind from O
Vent: O 6 km/h
Température: 11°C
Point de Rosée: 11°C
Humidité: 100%
Baromètre: 1021 hPa
Récapitulatifs: Broulliard
Nuages: partiellement nuageux
Visibilité: 2 km
2014/09/02 04:00 LFRN 020400Z AUTO 28003KT 1800 BR NSC 11/11 Q1021
LFCR - Rodez/, France
Distance de la station: SSE 277km
Mise à jour: 02/09/2014 06:00
partiellement nuageux
partiellement nuageux
 Wind from variable
Vent: variable 2 km/h
Température: 7°C
Point de Rosée: 7°C
Humidité: 100%
Baromètre: 1017 hPa
Nuages: partiellement nuageux
Visibilité: 10 km
2014/09/02 04:00 LFCR 020400Z AUTO VRB01KT 9999 NSC 07/07 Q1017
 
LFYR - Romorantin/, France
Distance de la station: N 56km
Mise à jour: 02/09/2014 06:00
partiellement nuageux
partiellement nuageux
 Wind from calm
Vent: Vent calme
Température: 10°C
Point de Rosée: 10°C
Humidité: 100%
Baromètre: 1020 hPa
Nuages: partiellement nuageux
Visibilité: 10 km
2014/09/02 04:00 LFYR 020400Z AUTO 00000KT 9999 NSC 10/10 Q1020
LFOP - Rouen/, France
Distance de la station: N 286km
Mise à jour: 02/09/2014 06:00
faible pluie, Broulliard, Couvert
faible pluie, Broulliard, Couvert
 Wind from NNO
Vent: NNO 6 km/h
Température: 14°C
Point de Rosée: 14°C
Humidité: 100%
Baromètre: 1021 hPa
Récapitulatifs: faible pluie, Broulliard
Nuages: Couvert
Visibilité: 4 km
Nuages details: Quelques Nuages 274 m
partiellement nuageux 1067 m
Couvert 1402 m
2014/09/02 04:00 LFOP 020400Z AUTO 34003KT 3600 -RA BR FEW009 SCT035 OVC046 14/14 Q1021
 
LFMY - Salon/, France
Distance de la station: SE 446km
Mise à jour: 02/09/2014 06:00
partiellement nuageux
partiellement nuageux
 Wind from NNO
Vent: NNO 11 km/h
Température: 16°C
Point de Rosée: 9°C
Humidité: 63%
Baromètre: 1012 hPa
Nuages: partiellement nuageux
Visibilité: 10 km
2014/09/02 04:00 LFMY 020400Z AUTO 34006KT 300V010 9999 NSC 16/09 Q1012
LFST - Strasbourg/, France
Distance de la station: ENE 483km
Mise à jour: 02/09/2014 06:00
Couvert
Couvert
 Wind from NO
Vent: NO 2 km/h
Température: 12°C
Point de Rosée: 11°C
Humidité: 94%
Baromètre: 1021 hPa
Nuages: Couvert
Visibilité: 10 km
Nuages details: Quelques Nuages 1768 m
Couvert 2499 m
2014/09/02 04:00 LFST 020400Z AUTO 32001KT 9999 FEW058 OVC082 12/11 Q1021
 
LFRT - Saint-Brieuc/, France
Distance de la station: ONO 388km
Mise à jour: 01/09/2014 22:00
Pas à jour
nuageux
nuageux
 Wind from E
Vent: E 6 km/h
Température: 15°C
Point de Rosée: 13°C
Humidité: 88%
Baromètre: 1022 hPa
Nuages: nuageux
Visibilité: 10 km
Nuages details: nuageux 1097 m
2014/09/01 20:00 LFRT 012000Z AUTO 10003KT 9999 BKN036 15/13 Q1022
LFSI - St. Dizier/, France
Distance de la station: NE 313km
Mise à jour: 02/09/2014 05:00
Pas à jour
partiellement nuageux
partiellement nuageux
 Wind from E
Vent: E 7 km/h
Température: 11°C
Point de Rosée: 10°C
Humidité: 94%
Baromètre: 1021 hPa
Nuages: partiellement nuageux
Visibilité: 10 km
2014/09/02 03:00 LFSI 020300Z AUTO 10004KT 9999 NSC 11/10 Q1021
 
LFMH - St Etienne/, France
Distance de la station: SE 247km
Mise à jour: 02/09/2014 06:00
clair
clair
 Wind from SE
Vent: SE 2 km/h
Température: 8°C
Point de Rosée: 6°C
Humidité: 87%
Baromètre: 1019 hPa
Récapitulatifs: clair
Visibilité: supérieure à 10 km
2014/09/02 04:00 LFMH 020400Z 14001KT CAVOK 08/06 Q1019
LFRG - St Gatien/, France
Distance de la station: NNO 305km
Mise à jour: 02/09/2014 06:00
Broulliard, Couvert
Broulliard, Couvert
 Wind from calm
Vent: Vent calme
Température: 15°C
Point de Rosée: 14°C
Humidité: 94%
Baromètre: 1021 hPa
Récapitulatifs: Broulliard
Nuages: Couvert
Visibilité: 5 km
Nuages details: Couvert 335 m
2014/09/02 04:00 LFRG 020400Z AUTO 00000KT 5000 BR OVC011 15/14 Q1021
 
LFRZ - St. Nazaire/, France
Distance de la station: ONO 297km
Mise à jour: 02/09/2014 06:00
partiellement nuageux
partiellement nuageux
 Wind from variable
Vent: variable 4 km/h
Température: 13°C
Point de Rosée: 12°C
Humidité: 94%
Baromètre: 1020 hPa
Nuages: partiellement nuageux
Visibilité: 10 km
2014/09/02 04:00 LFRZ 020400Z AUTO VRB02KT 9999 NSC 13/12 Q1020
LFLN - Saint Yan/, France
Distance de la station: ESE 184km
Mise à jour: 02/09/2014 06:00
Brouillard ou brume, nuageux
Brouillard ou brume, nuageux
 Wind from SSE
Vent: SSE 4 km/h
Température: 7°C
Point de Rosée: 7°C
Humidité: 100%
Baromètre: 1020 hPa
Récapitulatifs: Brouillard ou brume
Nuages: nuageux
Visibilité: 1 km
Nuages details: nuageux 122 m
nuageux 335 m
2014/09/02 04:00 LFLN 020400Z AUTO 16002KT 0550 R33/1800U FG BKN004 BKN011 07/07 Q1020
 
LFBT - Tarbes/, France
Distance de la station: SSO 427km
Mise à jour: 02/09/2014 06:00
partiellement nuageux
partiellement nuageux
 Wind from S
Vent: S 6 km/h
Température: 12°C
Point de Rosée: 11°C
Humidité: 94%
Baromètre: 1018 hPa
Nuages: partiellement nuageux
Visibilité: 10 km
2014/09/02 04:00 LFBT 020400Z AUTO 17003KT 9999 NSC 12/11 Q1018
LFSL - Toul/, France
Distance de la station: NE 356km
Mise à jour: 02/09/2014 06:00
partiellement nuageux
partiellement nuageux
 Wind from N
Vent: N 13 km/h
Température: 12°C
Point de Rosée: 9°C
Humidité: 82%
Baromètre: 1018 hPa
Nuages: partiellement nuageux
Visibilité: 10 km
2014/09/02 04:00 LFSL 020400Z AUTO 36007KT 9999 NSC 12/09 Q1018
 
LFBO - Toulouse/, France
Distance de la station: S 357km
Mise à jour: 02/09/2014 06:00
partiellement nuageux
partiellement nuageux
 Wind from NO
Vent: NO 4 km/h
Température: 14°C
Point de Rosée: 11°C
Humidité: 82%
Baromètre: 1017 hPa
Nuages: partiellement nuageux
Visibilité: 10 km
2014/09/02 04:00 LFBO 020400Z AUTO 32002KT 9999 NSC 14/11 Q1017
LFOT - Tours/, France
Distance de la station: NO 100km
Mise à jour: 02/09/2014 06:00
clair
clair
 Wind from calm
Vent: Vent calme
Température: 12°C
Point de Rosée: 11°C
Humidité: 94%
Baromètre: 1020 hPa
Récapitulatifs: clair
Visibilité: supérieure à 10 km
2014/09/02 04:00 LFOT 020400Z 00000KT CAVOK 12/11 Q1020 NOSIG
 
LFPN - Toussus Le Noble/, France
Distance de la station: N 217km
Mise à jour: 02/09/2014 06:00
Couvert
Couvert
 Wind from variable
Vent: variable 2 km/h
Température: 14°C
Point de Rosée: 13°C
Humidité: 94%
Baromètre: 1021 hPa
Nuages: Couvert
Visibilité: 10 km
Nuages details: Couvert 1280 m
2014/09/02 04:00 LFPN 020400Z AUTO VRB01KT 9999 OVC042 14/13 Q1021
LFPV - Villacoublay/, France
Distance de la station: N 220km
Mise à jour: 02/09/2014 06:00
Couvert
Couvert
 Wind from N
Vent: N 7 km/h
Température: 16°C
Point de Rosée: 13°C
Humidité: 83%
Baromètre: 1021 hPa
Nuages: Couvert
Visibilité: 10 km
Nuages details: Couvert 1250 m
2014/09/02 04:00 LFPV 020400Z AUTO 01004KT 350V050 9999 OVC041 16/13 Q1021